createdAt,value
2022-10-02T00:02:04.032Z,78.60
2022-10-02T00:04:40.283Z,78.30
2022-10-02T00:07:12.662Z,78.10
2022-10-02T00:09:49.038Z,77.80
2022-10-02T00:12:22.932Z,77.80
2022-10-02T00:14:56.721Z,77.90
2022-10-02T00:17:30.567Z,77.90
2022-10-02T00:20:00.045Z,77.90
2022-10-02T00:22:38.682Z,78.00
2022-10-02T00:25:14.692Z,78.20
2022-10-02T00:27:57.270Z,78.20
2022-10-02T00:30:26.356Z,78.30
2022-10-02T00:33:05.175Z,78.50
2022-10-02T00:35:53.508Z,78.60
2022-10-02T00:38:35.039Z,78.80
2022-10-02T00:41:18.075Z,78.80
2022-10-02T00:43:59.172Z,78.80
2022-10-02T00:46:46.613Z,78.50
2022-10-02T00:49:42.067Z,78.60
2022-10-02T00:52:35.124Z,78.70
2022-10-02T00:55:33.114Z,78.60
2022-10-02T00:58:18.138Z,78.60
2022-10-02T01:00:56.876Z,78.60
2022-10-02T01:03:28.311Z,78.60
2022-10-02T01:05:57.089Z,78.50
2022-10-02T01:08:26.596Z,78.30
2022-10-02T01:10:55.708Z,78.10
2022-10-02T01:13:25.512Z,78.00
2022-10-02T01:15:58.622Z,77.90
2022-10-02T01:18:28.086Z,77.70
2022-10-02T01:21:03.430Z,77.60
2022-10-02T01:23:39.126Z,77.60
2022-10-02T01:26:09.563Z,77.70
2022-10-02T01:28:38.783Z,77.60
2022-10-02T01:31:12.657Z,77.70
2022-10-02T01:33:43.621Z,77.80
2022-10-02T01:36:14.886Z,77.90
2022-10-02T01:38:44.353Z,77.90
2022-10-02T01:41:14.650Z,78.00
2022-10-02T01:43:47.869Z,77.80
2022-10-02T01:46:28.937Z,78.00
2022-10-02T01:49:10.203Z,79.00
2022-10-02T01:52:04.051Z,78.30
2022-10-02T01:54:47.469Z,78.50
2022-10-02T01:57:28.952Z,78.50
2022-10-02T02:00:03.430Z,78.70
2022-10-02T02:02:49.884Z,78.70
2022-10-02T02:05:28.434Z,78.70
2022-10-02T02:08:07.274Z,78.80
2022-10-02T02:10:44.910Z,79.00
2022-10-02T02:13:19.616Z,79.10
2022-10-02T02:15:55.736Z,79.00
2022-10-02T02:18:31.066Z,79.10
2022-10-02T02:21:04.588Z,79.20
2022-10-02T02:23:36.736Z,79.40
2022-10-02T02:26:12.423Z,79.40
2022-10-02T02:28:48.284Z,79.60
2022-10-02T02:31:22.030Z,79.60
2022-10-02T02:33:55.949Z,79.70
2022-10-02T02:36:30.179Z,79.70
2022-10-02T02:39:02.530Z,80.70
2022-10-02T02:41:38.931Z,80.00
2022-10-02T02:44:13.830Z,80.10
2022-10-02T02:47:00.384Z,80.30
2022-10-02T02:49:35.367Z,80.30
2022-10-02T02:52:08.027Z,80.50
2022-10-02T02:54:41.215Z,80.50
2022-10-02T02:57:11.897Z,80.60
2022-10-02T02:59:45.765Z,80.60
2022-10-02T03:02:14.823Z,80.60
2022-10-02T03:04:43.881Z,80.60
2022-10-02T03:07:17.566Z,80.70
2022-10-02T03:09:54.458Z,80.70
2022-10-02T03:12:34.219Z,80.70
2022-10-02T03:15:19.634Z,80.70
2022-10-02T03:18:21.085Z,80.70
2022-10-02T03:21:03.212Z,80.70
2022-10-02T03:23:41.429Z,80.70
2022-10-02T03:26:16.509Z,80.70
2022-10-02T03:28:56.075Z,80.60
2022-10-02T03:31:29.642Z,80.60
2022-10-02T03:33:59.673Z,80.70
2022-10-02T03:36:29.258Z,80.60
2022-10-02T03:41:52.054Z,80.60
2022-10-02T03:44:21.056Z,80.50
2022-10-02T03:46:52.067Z,80.40
2022-10-02T03:49:21.148Z,80.60
2022-10-02T03:51:50.150Z,80.50
2022-10-02T03:54:21.846Z,80.50
2022-10-02T03:56:57.287Z,80.60
2022-10-02T03:59:41.086Z,80.60
2022-10-02T04:02:22.903Z,80.70
2022-10-02T04:04:56.382Z,80.70
2022-10-02T04:07:32.064Z,80.60
2022-10-02T04:10:15.792Z,80.60
2022-10-02T04:12:47.684Z,80.60
2022-10-02T04:15:21.977Z,80.60
2022-10-02T04:17:59.044Z,80.70
2022-10-02T04:20:34.643Z,80.80
2022-10-02T04:23:08.759Z,80.80
2022-10-02T04:25:43.993Z,80.80
2022-10-02T04:28:15.776Z,80.80
2022-10-02T04:30:45.064Z,80.80
2022-10-02T04:33:18.966Z,80.90
2022-10-02T04:35:58.162Z,80.90
2022-10-02T04:38:51.406Z,81.00
2022-10-02T04:41:41.509Z,80.90
2022-10-02T04:44:21.710Z,81.00
2022-10-02T04:47:09.132Z,81.00
2022-10-02T04:50:07.030Z,81.00
2022-10-02T04:52:52.260Z,81.00
2022-10-02T04:55:52.401Z,81.10
2022-10-02T04:58:54.597Z,81.20
2022-10-02T05:01:32.905Z,81.30
2022-10-02T05:04:19.597Z,81.30
2022-10-02T05:07:03.903Z,81.50
2022-10-02T05:09:40.223Z,81.50
2022-10-02T05:12:40.087Z,81.40
2022-10-02T05:15:24.270Z,81.50
2022-10-02T05:18:08.553Z,81.50
2022-10-02T05:20:57.003Z,81.50
2022-10-02T05:23:46.917Z,81.60
2022-10-02T05:26:35.981Z,81.60
2022-10-02T05:29:27.808Z,81.70
2022-10-02T05:32:09.165Z,81.80
2022-10-02T05:34:51.893Z,81.70
2022-10-02T05:37:35.767Z,81.40
2022-10-02T05:40:15.360Z,81.50
2022-10-02T05:42:53.960Z,81.50
2022-10-02T05:45:28.340Z,81.60
2022-10-02T05:48:13.770Z,81.60
2022-10-02T05:50:43.853Z,81.60
2022-10-02T05:53:24.849Z,81.50
2022-10-02T05:56:00.410Z,81.60
2022-10-02T05:58:33.932Z,81.60
2022-10-02T06:01:09.202Z,81.60
2022-10-02T06:03:45.196Z,81.50
2022-10-02T06:06:18.813Z,81.50
2022-10-02T06:08:51.995Z,81.50
2022-10-02T06:11:28.333Z,81.40
2022-10-02T06:14:01.911Z,81.40
2022-10-02T06:16:37.231Z,81.30
2022-10-02T06:19:12.138Z,81.20
2022-10-02T06:21:48.257Z,81.20
2022-10-02T06:24:22.877Z,81.20
2022-10-02T06:27:00.775Z,81.30
2022-10-02T06:29:35.767Z,81.40
2022-10-02T06:32:17.967Z,81.50
2022-10-02T06:34:48.104Z,81.60
2022-10-02T06:37:49.227Z,81.60
2022-10-02T06:40:35.789Z,81.70
2022-10-02T06:43:13.313Z,81.70
2022-10-02T06:45:53.339Z,81.80
2022-10-02T06:48:26.920Z,81.80
2022-10-02T06:51:02.237Z,81.90
2022-10-02T06:53:47.157Z,81.80
2022-10-02T06:56:31.239Z,81.90
2022-10-02T06:59:12.317Z,81.80
2022-10-02T07:01:55.004Z,81.80
2022-10-02T07:04:58.384Z,81.70
2022-10-02T07:07:42.022Z,81.70
2022-10-02T07:10:22.877Z,81.70
2022-10-02T07:13:13.004Z,81.60
2022-10-02T07:16:09.427Z,81.60
2022-10-02T07:18:57.978Z,81.50
2022-10-02T07:21:39.543Z,81.50
2022-10-02T07:24:23.925Z,81.30
2022-10-02T07:27:00.126Z,81.30
2022-10-02T07:29:38.853Z,81.30
2022-10-02T07:32:41.908Z,81.30
2022-10-02T07:35:38.430Z,81.30
2022-10-02T07:38:22.917Z,81.30
2022-10-02T07:41:00.387Z,81.20
2022-10-02T07:43:42.805Z,81.20
2022-10-02T07:46:18.299Z,81.20
2022-10-02T07:49:08.648Z,81.00
2022-10-02T07:51:48.456Z,81.80
2022-10-02T07:54:52.406Z,80.90
2022-10-02T07:57:30.274Z,80.70
2022-10-02T08:00:04.005Z,81.40
2022-10-02T08:02:46.313Z,80.50
2022-10-02T08:05:20.777Z,80.40
2022-10-02T08:07:53.374Z,80.40
2022-10-02T08:10:26.851Z,80.30
2022-10-02T08:13:03.144Z,80.30
2022-10-02T08:15:36.465Z,80.10
2022-10-02T08:18:33.638Z,80.00
2022-10-02T08:21:09.371Z,79.70
2022-10-02T08:23:44.052Z,79.60
2022-10-02T08:26:18.220Z,79.50
2022-10-02T08:28:53.021Z,79.40
2022-10-02T08:31:23.488Z,79.10
2022-10-02T08:33:52.516Z,78.90
2022-10-02T08:36:59.560Z,78.50
2022-10-02T08:39:50.528Z,77.90
2022-10-02T08:43:09.127Z,77.50
2022-10-02T08:46:13.990Z,77.00
2022-10-02T08:49:17.863Z,76.70
2022-10-02T08:52:19.340Z,76.30
2022-10-02T08:55:17.148Z,76.10
2022-10-02T08:58:24.978Z,75.60
2022-10-02T09:01:06.790Z,75.20
2022-10-02T09:04:28.360Z,74.80
2022-10-02T09:08:03.629Z,74.10
2022-10-02T09:11:02.242Z,73.90
2022-10-02T09:14:10.223Z,74.10
2022-10-02T09:17:01.690Z,74.30
2022-10-02T09:19:43.009Z,74.20
2022-10-02T09:22:39.743Z,74.20
2022-10-02T09:25:35.953Z,74.20
2022-10-02T09:28:32.257Z,73.90
2022-10-02T09:31:40.491Z,73.70
2022-10-02T09:34:47.517Z,73.00
2022-10-02T09:37:40.686Z,72.70
2022-10-02T09:40:45.624Z,72.40
2022-10-02T09:43:51.585Z,71.90
2022-10-02T09:46:47.320Z,71.90
2022-10-02T09:49:51.954Z,71.80
2022-10-02T09:52:47.614Z,71.50
2022-10-02T09:55:57.512Z,71.20
2022-10-02T09:58:59.725Z,71.00
2022-10-02T10:01:45.370Z,71.20
2022-10-02T10:05:07.174Z,71.30
2022-10-02T10:08:10.226Z,71.10
2022-10-02T10:10:57.047Z,71.20
2022-10-02T10:13:53.999Z,71.30
2022-10-02T10:16:55.212Z,71.10
2022-10-02T10:20:00.888Z,70.70
2022-10-02T10:23:02.176Z,70.70
2022-10-02T10:26:02.657Z,70.80
2022-10-02T10:29:04.013Z,70.80
2022-10-02T10:32:13.201Z,70.80
2022-10-02T10:35:25.487Z,70.70
2022-10-02T10:38:32.941Z,70.30
2022-10-02T10:41:28.151Z,70.00
2022-10-02T10:44:21.976Z,70.00
2022-10-02T10:47:01.196Z,70.00
2022-10-02T10:50:06.279Z,69.70
2022-10-02T10:53:04.082Z,69.10
2022-10-02T10:55:54.503Z,69.00
2022-10-02T10:58:36.881Z,68.80
2022-10-02T11:01:15.457Z,68.90
2022-10-02T11:04:10.882Z,69.10
2022-10-02T11:07:15.635Z,69.30
2022-10-02T11:10:17.682Z,69.40
2022-10-02T11:13:09.648Z,69.40
2022-10-02T11:16:07.573Z,69.30
2022-10-02T11:18:49.288Z,69.10
2022-10-02T11:21:47.807Z,69.10
2022-10-02T11:24:35.267Z,68.70
2022-10-02T11:27:27.947Z,68.30
2022-10-02T11:30:09.182Z,68.10
2022-10-02T11:33:12.281Z,68.10
2022-10-02T11:36:24.019Z,67.90
2022-10-02T11:39:21.053Z,67.50
2022-10-02T11:42:10.100Z,67.40
2022-10-02T11:45:08.744Z,67.30
2022-10-02T11:48:09.291Z,67.10
2022-10-02T11:51:13.236Z,67.00
2022-10-02T11:54:01.870Z,66.90
2022-10-02T11:57:00.693Z,66.70
2022-10-02T11:59:44.287Z,66.50
2022-10-02T12:02:21.835Z,66.20
2022-10-02T12:05:04.530Z,66.30
2022-10-02T12:07:44.245Z,66.10
2022-10-02T12:10:27.355Z,65.90
2022-10-02T12:13:07.972Z,65.50
2022-10-02T12:15:43.534Z,65.40
2022-10-02T12:18:31.846Z,65.20
2022-10-02T12:21:41.153Z,64.80
2022-10-02T12:24:40.754Z,64.40
2022-10-02T12:27:16.416Z,63.80
2022-10-02T12:30:00.512Z,63.80
2022-10-02T12:32:44.601Z,63.70
2022-10-02T12:35:37.755Z,63.80
2022-10-02T12:38:17.458Z,64.00
2022-10-02T12:40:59.444Z,64.20
2022-10-02T12:44:12.861Z,64.50
2022-10-02T12:47:12.733Z,64.40
2022-10-02T12:49:55.679Z,64.40
2022-10-02T12:52:51.806Z,64.30
2022-10-02T12:55:54.438Z,64.20
2022-10-02T12:58:31.374Z,63.70
2022-10-02T13:01:30.884Z,64.60
2022-10-02T13:04:44.643Z,63.60
2022-10-02T13:07:44.644Z,63.80
2022-10-02T13:10:22.665Z,63.60
2022-10-02T13:13:03.567Z,63.60
2022-10-02T13:15:54.953Z,63.10
2022-10-02T13:18:48.449Z,62.80
2022-10-02T13:21:25.646Z,62.80
2022-10-02T13:24:09.549Z,63.20
2022-10-02T13:26:49.175Z,63.40
2022-10-02T13:29:42.942Z,63.10
2022-10-02T13:32:52.459Z,62.40
2022-10-02T13:35:53.987Z,61.40
2022-10-02T13:38:37.310Z,61.40
2022-10-02T13:41:17.342Z,61.70
2022-10-02T13:43:59.170Z,62.00
2022-10-02T13:46:45.250Z,62.30
2022-10-02T13:49:26.363Z,62.40
2022-10-02T13:52:03.413Z,62.50
2022-10-02T13:54:50.284Z,62.70
2022-10-02T13:57:31.980Z,62.80
2022-10-02T14:00:10.280Z,63.10
2022-10-02T14:02:46.777Z,63.20
2022-10-02T14:05:31.187Z,63.60
2022-10-02T14:08:26.946Z,63.60
2022-10-02T14:11:12.451Z,63.80
2022-10-02T14:13:59.035Z,64.00
2022-10-02T14:16:44.890Z,64.00
2022-10-02T14:19:45.850Z,64.30
2022-10-02T14:22:34.966Z,64.60
2022-10-02T14:25:28.267Z,64.70
2022-10-02T14:28:17.909Z,64.90
2022-10-02T14:31:11.024Z,64.90
2022-10-02T14:33:56.230Z,65.00
2022-10-02T14:36:32.950Z,65.30
2022-10-02T14:39:14.532Z,65.40
2022-10-02T14:41:57.020Z,65.10
2022-10-02T14:44:43.914Z,65.10
2022-10-02T14:47:30.870Z,65.00
2022-10-02T14:50:34.257Z,64.90
2022-10-02T14:53:25.771Z,65.00
2022-10-02T14:56:19.543Z,65.00
2022-10-02T14:58:58.953Z,65.00
2022-10-02T15:01:28.155Z,65.00
2022-10-02T15:04:22.070Z,65.00
2022-10-02T15:07:07.994Z,65.00
2022-10-02T15:10:02.623Z,65.20
2022-10-02T15:12:48.118Z,65.20
2022-10-02T15:15:22.086Z,65.50
2022-10-02T15:18:11.779Z,65.70
2022-10-02T15:20:55.177Z,65.90
2022-10-02T15:23:40.473Z,65.90
2022-10-02T15:26:25.456Z,65.80
2022-10-02T15:29:04.993Z,65.70
2022-10-02T15:31:44.376Z,65.80
2022-10-02T15:34:22.800Z,65.80
2022-10-02T15:37:07.036Z,66.00
2022-10-02T15:40:08.909Z,66.10
2022-10-02T15:42:56.178Z,66.10
2022-10-02T15:45:56.329Z,66.10
2022-10-02T15:48:52.395Z,66.20
2022-10-02T15:51:41.116Z,66.40
2022-10-02T15:54:25.995Z,66.50
2022-10-02T15:57:13.833Z,66.60
2022-10-02T16:00:03.135Z,66.60
2022-10-02T16:02:57.971Z,66.60
2022-10-02T16:05:52.424Z,66.70
2022-10-02T16:08:33.656Z,66.80
2022-10-02T16:11:27.241Z,66.90
2022-10-02T16:14:02.326Z,67.10
2022-10-02T16:17:14.920Z,67.20
2022-10-02T16:20:09.844Z,67.40
2022-10-02T16:22:54.103Z,67.50
2022-10-02T16:26:03.676Z,67.60
2022-10-02T16:28:44.900Z,67.80
2022-10-02T16:31:35.294Z,67.90
2022-10-02T16:34:20.216Z,68.20
2022-10-02T16:36:53.702Z,68.30
2022-10-02T16:39:42.334Z,68.40
2022-10-02T16:42:22.206Z,68.50
2022-10-02T16:45:04.709Z,68.50
2022-10-02T16:47:44.576Z,68.50
2022-10-02T16:50:20.720Z,68.70
2022-10-02T16:52:57.188Z,68.70
2022-10-02T16:55:34.405Z,68.70
2022-10-02T16:58:18.513Z,68.80
2022-10-02T17:00:56.091Z,68.90
2022-10-02T17:03:30.653Z,69.00
2022-10-02T17:06:06.497Z,69.10
2022-10-02T17:08:43.741Z,69.10
2022-10-02T17:11:25.148Z,69.10
2022-10-02T17:14:12.468Z,69.10
2022-10-02T17:16:49.086Z,69.10
2022-10-02T17:19:27.260Z,69.20
2022-10-02T17:22:01.174Z,69.20
2022-10-02T17:24:39.811Z,69.40
2022-10-02T17:27:17.206Z,69.70
2022-10-02T17:29:55.610Z,69.80
2022-10-02T17:32:48.413Z,69.80
2022-10-02T17:35:18.964Z,70.00
2022-10-02T17:38:13.150Z,70.00
2022-10-02T17:40:50.567Z,70.10
2022-10-02T17:43:25.732Z,70.20
2022-10-02T17:46:06.199Z,70.30
2022-10-02T17:48:45.619Z,70.50
2022-10-02T17:51:51.875Z,70.60
2022-10-02T17:55:07.515Z,70.70
2022-10-02T17:57:54.142Z,70.90
2022-10-02T18:00:24.848Z,71.00
2022-10-02T18:03:19.677Z,71.20
2022-10-02T18:05:58.958Z,71.70
2022-10-02T18:09:05.073Z,71.80
2022-10-02T18:11:59.254Z,71.90
2022-10-02T18:15:00.168Z,72.10
2022-10-02T18:17:42.956Z,72.30
2022-10-02T18:20:20.476Z,72.50
2022-10-02T18:23:03.926Z,72.60
2022-10-02T18:26:00.109Z,72.90
2022-10-02T18:28:58.729Z,72.90
2022-10-02T18:31:55.860Z,72.90
2022-10-02T18:34:47.533Z,73.00
2022-10-02T18:37:39.492Z,73.40
2022-10-02T18:40:22.292Z,73.60
2022-10-02T18:43:09.287Z,73.70
2022-10-02T18:45:47.764Z,73.50
2022-10-02T18:48:38.220Z,73.60
2022-10-02T18:51:20.976Z,73.70
2022-10-02T18:54:03.279Z,73.70
2022-10-02T18:57:00.234Z,73.60
2022-10-02T18:59:41.712Z,73.20
2022-10-02T19:02:19.339Z,72.90
2022-10-02T19:05:00.353Z,72.90
2022-10-02T19:07:37.831Z,72.70
2022-10-02T19:10:29.422Z,72.60
2022-10-02T19:13:02.340Z,72.40
2022-10-02T19:15:32.982Z,72.50
2022-10-02T19:18:03.687Z,72.30
2022-10-02T19:20:50.259Z,72.30
2022-10-02T19:23:26.294Z,72.30
2022-10-02T19:25:57.699Z,72.40
2022-10-02T19:28:30.001Z,72.40
2022-10-02T19:31:03.647Z,72.50
2022-10-02T19:33:42.187Z,72.40
2022-10-02T19:36:17.929Z,72.50
2022-10-02T19:38:53.547Z,72.90
2022-10-02T19:41:23.845Z,72.70
2022-10-02T19:43:57.474Z,72.70
2022-10-02T19:46:34.081Z,72.70
2022-10-02T19:49:04.143Z,73.10
2022-10-02T19:51:43.924Z,72.80
2022-10-02T19:54:18.956Z,72.90
2022-10-02T19:56:49.069Z,73.20
2022-10-02T19:59:21.153Z,73.30
2022-10-02T20:01:53.287Z,73.50
2022-10-02T20:04:24.919Z,73.60
2022-10-02T20:06:58.085Z,73.60
2022-10-02T20:09:34.706Z,73.60
2022-10-02T20:12:10.489Z,73.40
2022-10-02T20:14:44.280Z,73.50
2022-10-02T20:17:13.819Z,73.50
2022-10-02T20:19:51.877Z,73.50
2022-10-02T20:22:34.365Z,73.60
2022-10-02T20:25:07.585Z,73.80
2022-10-02T20:27:44.995Z,73.90
2022-10-02T20:30:16.949Z,74.10
2022-10-02T20:32:51.964Z,74.10
2022-10-02T20:35:30.608Z,74.10
2022-10-02T20:38:05.417Z,74.10
2022-10-02T20:40:37.443Z,74.20
2022-10-02T20:43:11.847Z,74.30
2022-10-02T20:45:46.329Z,74.50
2022-10-02T20:49:09.327Z,74.60
2022-10-02T20:52:28.440Z,74.60
2022-10-02T20:55:02.869Z,74.50
2022-10-02T20:58:06.253Z,74.40
2022-10-02T21:00:51.470Z,74.40
2022-10-02T21:03:44.115Z,74.40
2022-10-02T21:06:35.948Z,74.50
2022-10-02T21:09:49.753Z,74.50
2022-10-02T21:12:49.749Z,75.30
2022-10-02T21:15:47.948Z,74.40
2022-10-02T21:18:47.417Z,74.30
2022-10-02T21:21:43.437Z,74.40
2022-10-02T21:24:44.089Z,74.30
2022-10-02T21:27:38.821Z,74.20
2022-10-02T21:30:17.456Z,74.20
2022-10-02T21:33:06.494Z,74.20
2022-10-02T21:35:45.138Z,74.10
2022-10-02T21:38:44.018Z,73.90
2022-10-02T21:41:48.666Z,73.90
2022-10-02T21:44:53.724Z,73.70
2022-10-02T21:47:53.344Z,73.70
2022-10-02T21:51:06.738Z,73.70
2022-10-02T21:54:09.986Z,73.90
2022-10-02T21:57:09.983Z,73.80
2022-10-02T22:00:02.752Z,73.80
2022-10-02T22:03:10.330Z,73.80
2022-10-02T22:06:25.908Z,74.00
2022-10-02T22:09:16.356Z,74.10
2022-10-02T22:12:01.048Z,74.10
2022-10-02T22:14:34.918Z,74.20
2022-10-02T22:17:16.582Z,74.30
2022-10-02T22:20:09.226Z,74.40
2022-10-02T22:22:56.561Z,74.60
2022-10-02T22:25:44.644Z,74.90
2022-10-02T22:28:35.318Z,75.00
2022-10-02T22:31:33.959Z,75.20
2022-10-02T22:34:19.169Z,75.20
2022-10-02T22:37:36.414Z,75.30
2022-10-02T22:40:12.198Z,75.50
2022-10-02T22:42:46.594Z,75.50
2022-10-02T22:45:21.953Z,75.40
2022-10-02T22:48:00.136Z,75.60
2022-10-02T22:50:35.977Z,75.70
2022-10-02T22:53:13.870Z,75.70
2022-10-02T22:55:50.947Z,75.80
2022-10-02T22:58:25.639Z,75.80
2022-10-02T23:01:02.953Z,75.90
2022-10-02T23:03:39.284Z,76.00
2022-10-02T23:06:20.292Z,75.90
2022-10-02T23:08:57.791Z,75.70
2022-10-02T23:11:32.250Z,75.60
2022-10-02T23:14:06.528Z,75.50
2022-10-02T23:16:39.542Z,75.30
2022-10-02T23:19:15.881Z,75.00
2022-10-02T23:21:50.125Z,74.80
2022-10-02T23:24:29.502Z,74.60
2022-10-02T23:27:10.125Z,74.40
2022-10-02T23:29:47.098Z,74.20
2022-10-02T23:32:26.966Z,74.10
2022-10-02T23:35:04.720Z,74.70
2022-10-02T23:37:42.375Z,73.70
2022-10-02T23:40:42.985Z,73.70
2022-10-02T23:43:18.118Z,73.60
2022-10-02T23:45:52.297Z,73.60
2022-10-02T23:48:21.406Z,73.60
2022-10-02T23:51:02.014Z,73.80
2022-10-02T23:53:54.509Z,73.80
2022-10-02T23:56:50.631Z,73.80
2022-10-02T23:59:34.185Z,73.70
